Time;durP1;ratioP1;P1;durP2;ratioP2;P2;SDS_P1;SDS_P2;PMS_P1;PMS_P2;Temp;Humidity;BMP_temperature;BMP_pressure;BME280_temperature;BME280_humidity;BME280_pressure;Samples;Min_cycle;Max_cycle;Signal;HPM_P1;HPM_P2
2023/11/17 00:00:02;;;;;;;;;;;;;;;19.77;57.43;101110.53;7390739;19;1745;-53
2023/11/17 00:02:33;;;;;;;;;;;;;;;19.74;57.35;101097.38;7390674;19;1579;-54
2023/11/17 00:05:01;;;;;;;;;;;;;;;19.74;57.53;101091.19;7391028;19;1582;-53
2023/11/17 00:07:30;;;;;;;;;;;;;;;19.73;57.53;101103.72;7389083;19;1855;-53
2023/11/17 00:09:59;;;;;;;;;;;;;;;19.70;57.48;101103.97;7391510;19;1597;-54
2023/11/17 00:12:27;;;;;;;;;;;;;;;19.71;57.71;101086.91;7390349;19;1523;-55
2023/11/17 00:14:55;;;;;;;;;;;;;;;19.68;57.66;101090.69;7390045;19;1396;-54
2023/11/17 00:17:24;;;;;;;;;;;;;;;19.71;57.75;101076.16;7389736;19;1494;-53
2023/11/17 00:19:55;;;;;;;;;;;;;;;19.71;57.50;101088.72;7389486;19;1353;-55
2023/11/17 00:22:23;;;;;;;;;;;;;;;19.68;57.88;101074.59;7390244;19;1482;-55
2023/11/17 00:24:51;;;;;;;;;;;;;;;19.68;57.74;101063.00;7390345;19;1441;-54
2023/11/17 00:27:20;;;;;;;;;;;;;;;19.67;57.87;101061.28;7388705;19;1853;-55
2023/11/17 00:29:48;;;;;;;;;;;;;;;19.66;57.67;101073.03;7374853;19;1578;-55
2023/11/17 00:32:17;;;;;;;;;;;;;;;19.67;57.66;101074.72;7389996;19;1448;-54
2023/11/17 00:34:45;;;;;;;;;;;;;;;19.66;57.71;101081.06;7389665;19;1396;-54
2023/11/17 00:37:16;;;;;;;;;;;;;;;19.65;57.81;101068.63;7390144;19;1626;-54
2023/11/17 00:39:44;;;;;;;;;;;;;;;19.65;58.03;101041.78;7395232;19;1471;-54
2023/11/17 00:42:13;;;;;;;;;;;;;;;19.64;58.08;101053.53;7398373;19;1568;-53
2023/11/17 00:44:41;;;;;;;;;;;;;;;19.62;58.11;101037.56;7396696;19;1938;-53
2023/11/17 00:47:09;;;;;;;;;;;;;;;19.63;58.24;101049.13;7395980;19;1849;-54
2023/11/17 00:49:39;;;;;;;;;;;;;;;19.62;58.06;101039.41;7396114;19;1471;-54
2023/11/17 00:52:08;;;;;;;;;;;;;;;19.62;58.08;101036.72;7396475;19;1586;-53
2023/11/17 00:54:42;;;;;;;;;;;;;;;19.61;58.09;101035.00;7396792;19;1519;-54
2023/11/17 00:57:11;;;;;;;;;;;;;;;19.59;58.02;101053.91;7396269;19;1565;-54
2023/11/17 00:59:39;;;;;;;;;;;;;;;19.16;58.14;100966.44;7396105;19;1598;-54
2023/11/17 01:02:08;;;;;;;;;;;;;;;19.58;57.89;101027.22;7395159;19;2282;-53
2023/11/17 01:04:36;;;;;;;;;;;;;;;19.60;57.75;101026.09;7395713;19;1602;-55
2023/11/17 01:07:04;;;;;;;;;;;;;;;19.60;58.12;101018.06;7396714;19;1876;-53
2023/11/17 01:09:33;;;;;;;;;;;;;;;19.60;58.02;101011.84;7395434;19;1545;-54
2023/11/17 01:12:04;;;;;;;;;;;;;;;19.60;58.07;101006.50;7396024;19;1406;-54
2023/11/17 01:14:32;;;;;;;;;;;;;;;19.59;57.93;101007.47;7396425;19;1479;-53
2023/11/17 01:17:00;;;;;;;;;;;;;;;19.59;57.99;100988.69;7395889;19;1530;-55
2023/11/17 01:19:29;;;;;;;;;;;;;;;19.61;57.73;100992.06;7395659;19;1498;-53
2023/11/17 01:21:57;;;;;;;;;;;;;;;19.60;58.23;100985.03;7395222;19;1340;-54
2023/11/17 01:24:26;;;;;;;;;;;;;;;19.58;58.19;100976.25;7395444;19;1580;-53
2023/11/17 01:26:54;;;;;;;;;;;;;;;19.59;58.28;100969.91;7395793;19;1498;-54
2023/11/17 01:29:25;;;;;;;;;;;;;;;19.58;58.33;100954.81;7395439;19;1408;-54
2023/11/17 01:31:53;;;;;;;;;;;;;;;19.56;58.31;100954.09;7381812;19;1380;-54
2023/11/17 01:34:22;;;;;;;;;;;;;;;19.56;58.48;100954.09;7392948;19;1900;-53
2023/11/17 01:36:51;;;;;;;;;;;;;;;19.58;58.43;100960.16;7394655;19;1648;-53
2023/11/17 01:39:20;;;;;;;;;;;;;;;19.56;58.20;100948.72;7395067;19;1541;-54
2023/11/17 01:41:49;;;;;;;;;;;;;;;19.55;58.24;100955.06;7395834;19;1492;-54
2023/11/17 01:44:17;;;;;;;;;;;;;;;19.53;58.22;100941.78;7395139;19;1656;-53
2023/11/17 01:46:48;;;;;;;;;;;;;;;19.54;58.43;100926.56;7394587;19;1849;-54
2023/11/17 01:49:18;;;;;;;;;;;;;;;19.52;58.49;100923.13;7391309;19;1849;-54
2023/11/17 01:51:47;;;;;;;;;;;;;;;19.53;58.52;100914.94;7394596;19;1542;-54
2023/11/17 01:54:16;;;;;;;;;;;;;;;19.54;58.54;100921.19;7394424;19;1526;-54
2023/11/17 01:56:44;;;;;;;;;;;;;;;19.48;58.56;100901.97;7393614;19;1485;-55
2023/11/17 01:59:13;;;;;;;;;;;;;;;19.48;58.45;100901.97;7394281;19;1503;-54
2023/11/17 02:01:41;;;;;;;;;;;;;;;19.51;58.58;100900.00;7394257;19;1490;-54
2023/11/17 02:04:12;;;;;;;;;;;;;;;19.48;58.59;100901.97;7394852;19;1606;-52
2023/11/17 02:06:48;;;;;;;;;;;;;;;19.48;58.34;100901.97;7392692;19;2236;-54
2023/11/17 02:09:22;;;;;;;;;;;;;;;19.47;58.62;100889.53;7392054;19;1871;-54
2023/11/17 02:11:58;;;;;;;;;;;;;;;19.50;58.58;100887.53;7395121;19;1470;-53
2023/11/17 02:14:31;;;;;;;;;;;;;;;19.06;58.43;100807.41;7394853;19;1228;-54
2023/11/17 02:17:03;;;;;;;;;;;;;;;19.51;58.44;100881.22;7393464;19;1897;-54
2023/11/17 02:19:37;;;;;;;;;;;;;;;19.50;58.64;100879.50;7392799;19;1491;-54
2023/11/17 02:22:09;;;;;;;;;;;;;;;19.56;58.67;100871.78;7393371;19;1456;-54
2023/11/17 02:24:42;;;;;;;;;;;;;;;20.18;56.88;100867.09;7392665;19;1324;-54
2023/11/17 02:27:19;;;;;;;;;;;;;;;20.78;55.79;100847.28;7392783;19;1554;-54
2023/11/17 02:29:50;;;;;;;;;;;;;;;21.32;54.25;100860.97;7393591;19;1577;-55
2023/11/17 02:32:24;;;;;;;;;;;;;;;21.83;53.31;100841.59;7386419;19;1618;-53
2023/11/17 02:34:54;;;;;;;;;;;;;;;22.08;52.60;100822.13;7394012;19;1507;-54
2023/11/17 02:37:25;;;;;;;;;;;;;;;22.19;52.69;100828.13;7393373;19;1470;-53
2023/11/17 02:39:55;;;;;;;;;;;;;;;22.22;52.62;100811.66;7393335;19;1566;-54
2023/11/17 02:42:24;;;;;;;;;;;;;;;22.39;52.25;100833.38;7392312;19;2392;-54
2023/11/17 02:45:00;;;;;;;;;;;;;;;22.39;52.11;100830.69;7392987;19;1551;-53
2023/11/17 02:47:35;;;;;;;;;;;;;;;22.46;51.88;100817.41;7390781;19;1838;-53
2023/11/17 02:50:09;;;;;;;;;;;;;;;22.49;52.10;100811.72;7391754;19;1661;-53
2023/11/17 02:52:54;;;;;;;;;;;;;;;22.60;51.82;100804.22;7393382;19;1504;-55
2023/11/17 02:55:21;;;;;;;;;;;;;;;22.39;52.26;100806.44;7392928;19;1472;-53
2023/11/17 02:57:54;;;;;;;;;;;;;;;22.37;52.53;100797.66;7392618;19;1405;-55
2023/11/17 03:00:26;;;;;;;;;;;;;;;22.48;52.19;100793.84;7393424;19;1544;-55
2023/11/17 03:02:57;;;;;;;;;;;;;;;22.26;52.72;100781.72;7390589;19;1867;-54
2023/11/17 03:05:26;;;;;;;;;;;;;;;22.31;52.52;100790.22;7391898;19;1478;-54
2023/11/17 03:07:55;;;;;;;;;;;;;;;22.53;52.12;100803.16;7391356;19;1869;-55
2023/11/17 03:10:24;;;;;;;;;;;;;;;22.46;52.45;100796.69;7391834;19;1310;-55
2023/11/17 03:12:55;;;;;;;;;;;;;;;22.32;52.44;100798.13;7391860;19;1573;-54
2023/11/17 03:15:28;;;;;;;;;;;;;;;22.39;52.49;100801.03;7391182;19;1507;-55
2023/11/17 03:17:56;;;;;;;;;;;;;;;22.48;52.40;100788.47;7390810;19;1475;-53
2023/11/17 03:20:25;;;;;;;;;;;;;;;22.50;52.08;100781.94;7391302;19;1425;-55
2023/11/17 03:22:53;;;;;;;;;;;;;;;22.46;52.27;100768.91;7391604;19;1550;-53
2023/11/17 03:25:21;;;;;;;;;;;;;;;22.49;52.35;100774.84;7390747;19;1440;-53
2023/11/17 03:27:50;;;;;;;;;;;;;;;22.55;52.07;100776.91;7391057;19;1873;-54
2023/11/17 03:30:19;;;;;;;;;;;;;;;22.59;52.10;100764.78;7375434;19;1487;-55
2023/11/17 03:32:54;;;;;;;;;;;;;;;22.60;52.19;100787.19;7392477;19;1580;-54
2023/11/17 03:35:22;;;;;;;;;;;;;;;22.59;52.02;100770.19;7391545;19;1494;-54
2023/11/17 03:37:51;;;;;;;;;;;;;;;22.59;51.99;100786.34;7390221;19;1383;-55
2023/11/17 03:40:19;;;;;;;;;;;;;;;22.61;51.93;100778.94;7391044;19;1598;-55
2023/11/17 03:42:47;;;;;;;;;;;;;;;22.57;52.08;100768.66;7391510;19;1448;-53
2023/11/17 03:45:15;;;;;;;;;;;;;;;22.59;51.90;100756.69;7392216;19;1425;-54
2023/11/17 03:47:45;;;;;;;;;;;;;;;22.66;51.93;100764.16;7391511;19;1869;-54
2023/11/17 03:50:16;;;;;;;;;;;;;;;22.70;51.83;100752.91;7390887;19;1816;-55
2023/11/17 03:52:44;;;;;;;;;;;;;;;22.66;51.80;100756.94;7391957;19;1534;-53
2023/11/17 03:55:13;;;;;;;;;;;;;;;22.57;51.91;100758.72;7391031;19;1499;-54
2023/11/17 03:57:41;;;;;;;;;;;;;;;22.07;53.26;100761.19;7391134;19;1616;-54
2023/11/17 04:00:12;;;;;;;;;;;;;;;21.69;53.81;100753.28;7388428;19;1895;-55
2023/11/17 04:02:40;;;;;;;;;;;;;;;21.47;54.54;100761.78;7391019;19;1629;-54
2023/11/17 04:05:13;;;;;;;;;;;;;;;21.34;54.79;100757.59;7389955;19;1427;-55
2023/11/17 04:07:44;;;;;;;;;;;;;;;21.16;55.23;100754.03;7390413;19;1807;-54
2023/11/17 04:10:13;;;;;;;;;;;;;;;21.13;54.99;100738.19;7388672;19;1860;-54
2023/11/17 04:12:41;;;;;;;;;;;;;;;21.02;55.09;100748.16;7392173;19;1510;-54
2023/11/17 04:15:10;;;;;;;;;;;;;;;21.03;55.18;100731.03;7398426;19;1530;-54
2023/11/17 04:17:39;;;;;;;;;;;;;;;20.95;55.14;100736.31;7398250;19;1447;-55
2023/11/17 04:20:08;;;;;;;;;;;;;;;20.84;55.29;100733.81;7397108;19;1580;-55
2023/11/17 04:22:37;;;;;;;;;;;;;;;20.84;55.25;100739.19;7397120;19;1463;-54
2023/11/17 04:25:09;;;;;;;;;;;;;;;20.82;55.38;100725.06;7394492;19;1388;-55
2023/11/17 04:27:38;;;;;;;;;;;;;;;20.76;55.24;100725.66;7397465;19;1559;-55
2023/11/17 04:30:07;;;;;;;;;;;;;;;20.76;55.36;100739.09;7393859;19;1853;-53
2023/11/17 04:32:36;;;;;;;;;;;;;;;20.75;55.42;100732.00;7383720;19;1400;-55
2023/11/17 04:35:05;;;;;;;;;;;;;;;20.69;55.45;100721.84;7395420;19;1858;-52
2023/11/17 04:37:38;;;;;;;;;;;;;;;20.62;55.63;100722.44;7397290;19;1491;-54
2023/11/17 04:40:10;;;;;;;;;;;;;;;20.57;56.00;100716.66;7393277;19;1517;-54
2023/11/17 04:42:39;;;;;;;;;;;;;;;20.63;55.82;100734.91;7395898;19;1462;-52
2023/11/17 04:45:09;;;;;;;;;;;;;;;20.69;56.04;100724.53;7397219;19;1364;-55
2023/11/17 04:47:37;;;;;;;;;;;;;;;20.58;56.20;100729.06;7389407;19;1435;-55
2023/11/17 04:50:09;;;;;;;;;;;;;;;20.54;56.62;100716.94;7391347;19;1865;-54
2023/11/17 04:52:38;;;;;;;;;;;;;;;20.49;57.23;100739.84;7394553;19;1506;-55
2023/11/17 04:55:13;;;;;;;;;;;;;;;20.44;57.33;100716.13;7393947;19;1237;-54
2023/11/17 04:57:41;;;;;;;;;;;;;;;20.44;57.71;100721.50;7394200;19;1529;-57
2023/11/17 05:00:13;;;;;;;;;;;;;;;20.40;57.97;100712.03;7395309;19;1844;-55
2023/11/17 05:02:42;;;;;;;;;;;;;;;20.30;58.07;100708.53;7388455;19;1455;-55
2023/11/17 05:05:11;;;;;;;;;;;;;;;20.49;57.71;100703.06;7391427;19;1460;-55
2023/11/17 05:07:41;;;;;;;;;;;;;;;20.47;57.32;100726.56;7394183;19;2294;-54
2023/11/17 05:10:14;;;;;;;;;;;;;;;20.40;57.20;100712.03;7393015;19;1869;-55
2023/11/17 05:12:43;;;;;;;;;;;;;;;20.35;57.42;100698.19;7395174;19;1816;-54
2023/11/17 05:15:13;;;;;;;;;;;;;;;20.30;57.59;100705.84;7394212;19;1918;-56
2023/11/17 05:17:48;;;;;;;;;;;;;;;20.28;57.87;100700.63;7395001;19;1447;-52
2023/11/17 05:20:18;;;;;;;;;;;;;;;20.29;57.77;100685.34;7394570;19;1823;-53
2023/11/17 05:22:47;;;;;;;;;;;;;;;20.21;57.54;100716.47;7393261;19;1570;-53
2023/11/17 05:25:18;;;;;;;;;;;;;;;20.21;57.45;100700.38;7394471;19;1557;-52
2023/11/17 05:27:49;;;;;;;;;;;;;;;20.22;57.62;100706.56;7396093;19;1334;-53
2023/11/17 05:30:18;;;;;;;;;;;;;;;20.19;58.09;100696.97;7393168;19;1857;-55
2023/11/17 05:32:47;;;;;;;;;;;;;;;20.12;58.47;100701.22;7382655;19;1492;-52
2023/11/17 05:35:16;;;;;;;;;;;;;;;20.08;58.99;100715.91;7396006;19;1467;-52
2023/11/17 05:37:44;;;;;;;;;;;;;;;20.06;59.06;100683.00;7392903;19;1459;-52
2023/11/17 05:40:14;;;;;;;;;;;;;;;20.04;58.96;100676.94;7393701;19;1594;-53
2023/11/17 05:42:45;;;;;;;;;;;;;;;20.05;58.85;100678.63;7395884;19;1500;-53
2023/11/17 05:45:14;;;;;;;;;;;;;;;20.04;58.86;100685.00;7394677;19;1632;-53
2023/11/17 05:47:43;;;;;;;;;;;;;;;20.00;59.11;100676.38;7394568;19;1433;-53
2023/11/17 05:50:12;;;;;;;;;;;;;;;20.12;58.97;100684.28;7391995;19;1859;-53
2023/11/17 05:52:41;;;;;;;;;;;;;;;20.07;58.05;100687.38;7394076;19;1537;-52
2023/11/17 05:55:10;;;;;;;;;;;;;;;19.36;46.34;100679.59;7394295;19;1531;-52
2023/11/17 05:57:42;;;;;;;;;;;;;;;18.66;43.85;100669.72;7393012;19;1283;-53
2023/11/17 06:00:18;;;;;;;;;;;;;;;18.72;42.91;100662.09;7392471;19;1564;-53
2023/11/17 06:02:46;;;;;;;;;;;;;;;18.58;42.48;100663.31;7392416;19;1483;-54
2023/11/17 06:05:16;;;;;;;;;;;;;;;18.40;42.16;100634.53;7393030;19;1503;-53
2023/11/17 06:07:44;;;;;;;;;;;;;;;18.33;42.04;100659.28;7394947;19;1475;-54
2023/11/17 06:10:13;;;;;;;;;;;;;;;18.20;41.93;100646.94;7393180;19;1848;-54
2023/11/17 06:12:41;;;;;;;;;;;;;;;18.14;41.78;100652.84;7390084;19;1486;-52
2023/11/17 06:15:10;;;;;;;;;;;;;;;18.03;41.75;100667.16;7389896;19;1540;-53
2023/11/17 06:17:41;;;;;;;;;;;;;;;17.95;41.77;100666.97;7389712;19;1502;-53
2023/11/17 06:20:10;;;;;;;;;;;;;;;18.07;42.90;100632.97;7388037;19;1437;-54
2023/11/17 06:22:39;;;;;;;;;;;;;;;18.26;42.03;100635.75;7384988;19;1379;-55
2023/11/17 06:25:08;;;;;;;;;;;;;;;18.47;44.81;100627.63;7392294;19;1537;-53
2023/11/17 06:27:36;;;;;;;;;;;;;;;18.70;44.85;100635.44;7389934;19;1499;-52
2023/11/17 06:30:06;;;;;;;;;;;;;;;18.86;45.15;100632.28;7390091;19;1849;-53
2023/11/17 06:32:35;;;;;;;;;;;;;;;19.13;45.37;100633.47;7378347;19;1612;-54
2023/11/17 06:35:06;;;;;;;;;;;;;;;19.10;45.54;100612.28;7392641;19;1512;-53
2023/11/17 06:37:34;;;;;;;;;;;;;;;19.18;45.92;100609.75;7389516;19;1821;-53
2023/11/17 06:40:06;;;;;;;;;;;;;;;19.18;46.14;100617.78;7276862;19;14686;-54
2023/11/17 06:42:34;;;;;;;;;;;;;;;19.18;45.86;100599.03;7386770;19;1435;-53
2023/11/17 06:45:03;;;;;;;;;;;;;;;19.28;46.28;100578.47;7390402;19;1562;-54
2023/11/17 06:47:32;;;;;;;;;;;;;;;19.32;46.11;100577.19;7390978;19;1418;-52
2023/11/17 06:50:01;;;;;;;;;;;;;;;19.33;46.33;100583.38;7390297;19;1846;-52
2023/11/17 06:52:31;;;;;;;;;;;;;;;19.31;46.43;100602.28;7390627;19;1435;-55
2023/11/17 06:55:00;;;;;;;;;;;;;;;19.34;46.96;100587.75;7392191;19;1865;-53
2023/11/17 06:57:28;;;;;;;;;;;;;;;19.33;46.87;100584.22;7390543;19;1592;-55
2023/11/17 06:59:56;;;;;;;;;;;;;;;19.29;47.15;100574.78;7387530;19;1607;-54
2023/11/17 07:02:25;;;;;;;;;;;;;;;19.30;47.34;100586.34;7391592;19;1597;-54
2023/11/17 07:04:53;;;;;;;;;;;;;;;19.28;47.01;100581.13;7390976;19;1555;-53
2023/11/17 07:07:24;;;;;;;;;;;;;;;19.26;47.42;100558.97;7390407;19;1562;-54
2023/11/17 07:09:52;;;;;;;;;;;;;;;19.19;47.75;100549.81;7390459;19;1844;-53
2023/11/17 07:12:20;;;;;;;;;;;;;;;19.19;47.81;100555.16;7389120;19;1477;-53
2023/11/17 07:14:49;;;;;;;;;;;;;;;19.22;48.07;100569.13;7391637;19;1316;-52
2023/11/17 07:17:17;;;;;;;;;;;;;;;19.22;48.01;100576.34;7389446;19;1531;-54
2023/11/17 07:19:46;;;;;;;;;;;;;;;19.19;48.09;100582.81;7387450;19;1442;-54
2023/11/17 07:22:15;;;;;;;;;;;;;;;19.16;48.53;100579.56;7390284;19;1347;-54
2023/11/17 07:24:43;;;;;;;;;;;;;;;19.16;48.50;100563.47;7390741;19;1546;-52
2023/11/17 07:27:14;;;;;;;;;;;;;;;19.18;48.53;100582.94;7391056;19;1558;-53
2023/11/17 07:29:43;;;;;;;;;;;;;;;19.18;48.54;100567.72;7390243;19;1845;-55
2023/11/17 07:32:11;;;;;;;;;;;;;;;19.16;48.74;100571.53;7374738;19;1568;-54
2023/11/17 07:34:39;;;;;;;;;;;;;;;19.13;49.07;100575.34;7389569;19;1592;-52
2023/11/17 07:37:08;;;;;;;;;;;;;;;19.11;49.01;100582.69;7389260;19;1471;-53
2023/11/17 07:39:36;;;;;;;;;;;;;;;19.11;49.27;100549.66;7389673;19;1537;-53
2023/11/17 07:42:04;;;;;;;;;;;;;;;19.16;48.96;100590.28;7389407;19;1460;-53
2023/11/17 07:44:36;;;;;;;;;;;;;;;19.16;49.02;100564.34;7390085;19;1839;-52
2023/11/17 07:47:04;;;;;;;;;;;;;;;19.16;49.23;100553.63;7390575;19;1562;-53
2023/11/17 07:49:34;;;;;;;;;;;;;;;19.16;49.29;100563.47;7396221;19;1905;-54
2023/11/17 07:52:03;;;;;;;;;;;;;;;19.11;49.55;100558.56;7396288;19;1499;-54
2023/11/17 07:54:31;;;;;;;;;;;;;;;19.14;49.58;100552.91;7397142;19;1557;-54
2023/11/17 07:57:00;;;;;;;;;;;;;;;19.11;49.71;100541.63;7396978;19;1519;-52
2023/11/17 07:59:28;;;;;;;;;;;;;;;19.14;49.69;100523.44;7396797;19;1502;-53
2023/11/17 08:01:59;;;;;;;;;;;;;;;19.31;49.93;100543.28;7395871;19;1466;-53
2023/11/17 08:04:29;;;;;;;;;;;;;;;19.51;49.62;100548.63;7397787;19;2027;-52
2023/11/17 08:06:58;;;;;;;;;;;;;;;19.72;49.42;100543.13;7397194;19;1401;-53
2023/11/17 08:09:26;;;;;;;;;;;;;;;19.76;49.24;100539.16;7397058;19;1850;-52
2023/11/17 08:11:55;;;;;;;;;;;;;;;19.82;49.10;100523.31;7396480;19;1408;-52
2023/11/17 08:14:24;;;;;;;;;;;;;;;19.95;49.38;100517.59;7395149;19;1502;-53
2023/11/17 08:16:53;;;;;;;;;;;;;;;19.97;49.27;100536.25;7396983;19;1509;-52
2023/11/17 08:19:25;;;;;;;;;;;;;;;19.98;49.55;100556.75;7392006;19;1747;-52
2023/11/17 08:21:54;;;;;;;;;;;;;;;19.96;49.42;100537.25;7393948;19;2474;-52
2023/11/17 08:24:22;;;;;;;;;;;;;;;20.04;49.48;100521.25;7395780;19;1438;-51
2023/11/17 08:26:51;;;;;;;;;;;;;;;20.03;49.20;100536.53;7397522;19;1606;-53
2023/11/17 08:29:19;;;;;;;;;;;;;;;20.09;49.54;100527.00;7395871;19;1868;-53
2023/11/17 08:31:47;;;;;;;;;;;;;;;20.02;49.73;100523.25;7381335;19;1562;-53
2023/11/17 08:34:16;;;;;;;;;;;;;;;19.97;49.69;100525.50;7396923;19;1556;-52
2023/11/17 08:36:47;;;;;;;;;;;;;;;20.01;49.91;100492.00;7382403;19;1396;-53
2023/11/17 08:39:25;;;;;;;;;;;;;;;19.98;50.08;100478.91;7395986;19;1336;-52
2023/11/17 08:41:54;;;;;;;;;;;;;;;19.93;50.21;100484.69;7394749;19;1557;-53
2023/11/17 08:44:23;;;;;;;;;;;;;;;19.95;50.10;100496.13;7396175;19;1489;-52
2023/11/17 08:46:52;;;;;;;;;;;;;;;20.02;50.19;100477.59;7394239;19;1889;-52
2023/11/17 08:49:20;;;;;;;;;;;;;;;20.01;50.23;100476.75;7395194;19;1481;-52
2023/11/17 08:51:51;;;;;;;;;;;;;;;20.01;50.42;100487.47;7395490;19;1481;-54
2023/11/17 08:54:21;;;;;;;;;;;;;;;19.92;50.59;100482.19;7395325;19;1544;-53
2023/11/17 08:56:49;;;;;;;;;;;;;;;20.03;50.50;100492.69;7396992;19;1568;-53
2023/11/17 08:59:19;;;;;;;;;;;;;;;20.02;50.41;100486.50;7393022;19;1582;-53
2023/11/17 09:01:48;;;;;;;;;;;;;;;20.00;50.48;100491.16;7393940;19;1466;-52
2023/11/17 09:04:16;;;;;;;;;;;;;;;19.98;50.67;100489.63;7395199;19;1626;-53
2023/11/17 09:06:45;;;;;;;;;;;;;;;19.98;50.76;100489.63;7394811;19;1178;-53
2023/11/17 09:09:17;;;;;;;;;;;;;;;20.01;50.55;100476.75;7392490;19;2272;-53
2023/11/17 09:11:47;;;;;;;;;;;;;;;19.99;50.70;100469.84;7391331;19;1849;-53
2023/11/17 09:14:15;;;;;;;;;;;;;;;20.03;50.77;100452.44;7394662;19;1541;-53
2023/11/17 09:16:44;;;;;;;;;;;;;;;19.96;50.89;100432.59;7393256;19;1474;-52
2023/11/17 09:19:13;;;;;;;;;;;;;;;19.96;51.09;100424.53;7393443;19;1543;-52
2023/11/17 09:21:41;;;;;;;;;;;;;;;19.92;50.91;100412.41;7393625;19;1490;-53
2023/11/17 09:24:10;;;;;;;;;;;;;;;19.96;51.12;100428.06;7394144;19;1494;-53
2023/11/17 09:26:41;;;;;;;;;;;;;;;19.94;51.29;100423.84;7393804;19;1542;-53
2023/11/17 09:29:09;;;;;;;;;;;;;;;19.97;51.28;100412.78;7393537;19;1365;-52
2023/11/17 09:31:37;;;;;;;;;;;;;;;19.97;51.23;100408.25;7390987;19;1873;-53
2023/11/17 09:34:08;;;;;;;;;;;;;;;19.82;51.70;100425.88;7376324;19;1588;-52
2023/11/17 09:36:40;;;;;;;;;;;;;;;19.63;51.86;100413.34;7392057;19;1431;-53
2023/11/17 09:39:09;;;;;;;;;;;;;;;19.79;51.73;100405.53;7392180;19;1145;-54
2023/11/17 09:41:38;;;;;;;;;;;;;;;19.95;51.51;100393.31;7392719;19;1263;-52
2023/11/17 09:44:11;;;;;;;;;;;;;;;20.00;51.52;100396.41;7390439;19;1591;-52
2023/11/17 09:46:45;;;;;;;;;;;;;;;19.99;51.46;100394.69;7393770;19;1497;-52
2023/11/17 09:49:15;;;;;;;;;;;;;;;19.95;51.33;100415.63;7393036;19;1417;-52
2023/11/17 09:51:45;;;;;;;;;;;;;;;19.97;51.56;100402.06;7390771;19;1852;-54
2023/11/17 09:54:14;;;;;;;;;;;;;;;20.01;51.41;100387.34;7390355;19;1774;-52
2023/11/17 09:56:42;;;;;;;;;;;;;;;19.99;51.50;100394.69;7393497;19;1550;-52
2023/11/17 09:59:13;;;;;;;;;;;;;;;20.05;51.28;100394.09;7393323;19;1630;-54
2023/11/17 10:01:43;;;;;;;;;;;;;;;20.01;51.48;100392.69;7391235;19;1386;-52
2023/11/17 10:04:12;;;;;;;;;;;;;;;19.96;51.71;100373.53;7391803;19;1555;-53
2023/11/17 10:06:42;;;;;;;;;;;;;;;19.98;51.57;100374.22;7391186;19;1537;-53
2023/11/17 10:09:11;;;;;;;;;;;;;;;19.36;51.89;100307.78;7392440;19;1428;-53
2023/11/17 10:11:42;;;;;;;;;;;;;;;19.77;52.20;100369.97;7387654;19;1850;-52
2023/11/17 10:14:13;;;;;;;;;;;;;;;19.84;52.08;100371.06;7387842;19;1498;-53
2023/11/17 10:16:45;;;;;;;;;;;;;;;19.91;52.04;100367.78;7386142;19;2329;-53
2023/11/17 10:19:16;;;;;;;;;;;;;;;19.75;52.05;100366.59;7386198;19;1363;-54
2023/11/17 10:21:46;;;;;;;;;;;;;;;19.61;52.79;100372.44;7385042;19;1742;-54
2023/11/17 10:24:14;;;;;;;;;;;;;;;19.57;53.56;100360.31;7386081;19;1438;-54
2023/11/17 10:26:43;;;;;;;;;;;;;;;19.63;53.11;100357.88;7387630;19;1471;-54
2023/11/17 10:29:14;;;;;;;;;;;;;;;19.53;53.25;100361.59;7388240;19;1401;-53
2023/11/17 10:31:43;;;;;;;;;;;;;;;19.58;52.75;100348.59;7389361;19;1914;-42
2023/11/17 10:34:16;;;;;;;;;;;;;;;19.62;53.28;100350.00;7377151;19;1543;-42
2023/11/17 10:36:58;;;;;;;;;;;;;;;19.75;53.04;100329.03;7392208;19;1380;-42
2023/11/17 10:39:26;;;;;;;;;;;;;;;19.35;52.69;100276.59;7392610;19;1395;-42
2023/11/17 10:41:54;;;;;;;;;;;;;;;19.72;53.38;100334.72;7390300;19;1889;-42
2023/11/17 10:44:38;;;;;;;;;;;;;;;19.76;53.12;100329.91;7391685;19;1487;-42
2023/11/17 10:47:09;;;;;;;;;;;;;;;19.85;53.76;100329.81;7389748;19;1544;-41
2023/11/17 10:49:37;;;;;;;;;;;;;;;19.84;53.96;100319.25;7389068;19;1459;-42
2023/11/17 10:52:09;;;;;;;;;;;;;;;19.88;54.53;100319.78;7383975;19;1857;-42
2023/11/17 10:54:47;;;;;;;;;;;;;;;19.90;54.32;100323.16;7388363;19;1384;-42
2023/11/17 10:57:16;;;;;;;;;;;;;;;19.92;54.50;100313.97;7387742;19;1423;-42
2023/11/17 10:59:47;;;;;;;;;;;;;;;19.89;54.42;100335.72;7388713;19;1483;-42
2023/11/17 11:02:15;;;;;;;;;;;;;;;19.84;54.74;100321.94;7389403;19;1470;-42
2023/11/17 11:04:46;;;;;;;;;;;;;;;19.88;54.74;100317.09;7389309;19;1515;-42
2023/11/17 11:07:14;;;;;;;;;;;;;;;19.85;54.59;100321.75;7391315;19;1495;-42
2023/11/17 11:09:43;;;;;;;;;;;;;;;19.88;54.67;100315.25;7392221;19;1391;-42
2023/11/17 11:12:15;;;;;;;;;;;;;;;19.92;55.08;100297.03;7389373;19;1859;-42
2023/11/17 11:14:44;;;;;;;;;;;;;;;19.97;55.29;100311.63;7390759;19;1458;-42
2023/11/17 11:17:16;;;;;;;;;;;;;;;19.99;55.05;100311.50;7390883;19;1616;-53
2023/11/17 11:19:47;;;;;;;;;;;;;;;19.86;55.50;100296.63;7389734;19;1499;-52
2023/11/17 11:22:16;;;;;;;;;;;;;;;19.74;55.77;100305.91;7389224;19;1534;-50
2023/11/17 11:24:45;;;;;;;;;;;;;;;19.70;56.17;100309.84;7390817;19;1383;-51
2023/11/17 11:27:14;;;;;;;;;;;;;;;19.73;55.81;100272.00;7391118;19;1408;-50
2023/11/17 11:29:44;;;;;;;;;;;;;;;19.80;55.76;100278.44;7390100;19;1453;-52
2023/11/17 11:32:18;;;;;;;;;;;;;;;19.76;55.92;100290.47;7385374;19;1868;-49
2023/11/17 11:34:46;;;;;;;;;;;;;;;19.79;55.81;100268.69;7388035;19;1447;-48
2023/11/17 11:37:17;;;;;;;;;;;;;;;19.83;56.02;100278.13;7385207;19;1536;-46
2023/11/17 11:39:46;;;;;;;;;;;;;;;19.80;55.97;100262.34;7384456;19;1336;-46
2023/11/17 11:42:14;;;;;;;;;;;;;;;19.84;55.97;100276.31;7385461;19;1475;-46
2023/11/17 11:44:44;;;;;;;;;;;;;;;19.85;56.06;100264.56;7385434;19;1398;-46
2023/11/17 11:47:13;;;;;;;;;;;;;;;19.86;56.21;100251.00;7389623;19;1509;-46
2023/11/17 11:49:44;;;;;;;;;;;;;;;19.75;55.56;100253.91;7388189;19;1464;-46
2023/11/17 11:52:15;;;;;;;;;;;;;;;19.81;55.65;100258.66;7387290;19;1918;-46
2023/11/17 11:54:44;;;;;;;;;;;;;;;19.84;55.38;100253.00;7383488;19;1360;-46
2023/11/17 11:57:25;;;;;;;;;;;;;;;19.87;55.34;100262.56;7386925;19;1649;-46
2023/11/17 11:59:53;;;;;;;;;;;;;;;19.91;55.39;100269.31;7389922;19;1612;-46
2023/11/17 12:02:21;;;;;;;;;;;;;;;19.79;55.70;100268.69;7389494;19;1590;-46
2023/11/17 12:04:57;;;;;;;;;;;;;;;19.76;55.70;100277.06;7387554;19;1643;-46
2023/11/17 12:07:35;;;;;;;;;;;;;;;19.74;55.57;100289.78;7386934;19;1578;-46
2023/11/17 12:10:05;;;;;;;;;;;;;;;19.78;55.43;100287.66;7387735;19;1623;-46
2023/11/17 12:12:33;;;;;;;;;;;;;;;19.73;55.57;100274.69;7386402;19;1897;-46
2023/11/17 12:15:01;;;;;;;;;;;;;;;19.75;55.65;100271.84;7387739;19;1643;-46
2023/11/17 12:17:33;;;;;;;;;;;;;;;19.69;55.67;100275.94;7388311;19;1645;-46
2023/11/17 12:20:17;;;;;;;;;;;;;;;19.62;55.61;100278.41;7390528;19;1636;-46
2023/11/17 12:23:00;;;;;;;;;;;;;;;19.64;55.86;100284.47;7391433;19;1574;-46
2023/11/17 12:25:30;;;;;;;;;;;;;;;19.62;55.47;100299.03;7391468;19;1636;-46
2023/11/17 12:27:56;;;;;;;;;;;;;;;19.67;55.65;100283.31;7391295;19;1562;-46
2023/11/17 12:30:25;;;;;;;;;;;;;;;19.65;55.66;100267.34;7391605;19;1949;-46
2023/11/17 12:32:57;;;;;;;;;;;;;;;19.76;55.53;100255.59;7390968;19;1863;-46
2023/11/17 12:35:26;;;;;;;;;;;;;;;19.71;55.43;100247.16;7397261;19;1573;-46
2023/11/17 12:37:55;;;;;;;;;;;;;;;19.66;55.44;100257.50;7398700;19;1503;-46
2023/11/17 12:40:28;;;;;;;;;;;;;;;19.67;55.41;100248.44;7399239;19;1510;-46
2023/11/17 12:42:57;;;;;;;;;;;;;;;19.62;55.75;100258.78;7398386;19;1519;-46
2023/11/17 12:45:28;;;;;;;;;;;;;;;19.54;55.68;100256.03;7398814;19;1553;-47
2023/11/17 12:48:00;;;;;;;;;;;;;;;19.53;55.97;100299.91;7398755;19;1427;-46
2023/11/17 12:50:40;;;;;;;;;;;;;;;19.70;55.60;100258.03;7398008;19;1598;-46
2023/11/17 12:53:09;;;;;;;;;;;;;;;19.59;55.75;100245.66;7399031;19;1604;-46
2023/11/17 12:55:49;;;;;;;;;;;;;;;19.64;55.36;100240.72;7397370;19;1512;-46
2023/11/17 12:58:17;;;;;;;;;;;;;;;19.58;55.76;100238.63;7397844;19;1914;-46
2023/11/17 13:00:48;;;;;;;;;;;;;;;19.53;55.69;100224.81;7398091;19;1562;-46